Etusivu
METAR-TAF:

METAR-TAF

Lentoasemat :

Port Hope, Michigan, Yhdysvallat

Leveyspiiri: 44-01-19N, Pituuspiiri: 082-47-35W, korkeus merenpinnasta: 179 m

Tämänhetkinen sää

Tämä raportti tehtiin 43 minuuttia sitten, kello 18.51 UTC
Tuuli 7 kn etelästä
Lämpötila 26°C
Kosteus 70%
Ilmanpaine 1003 hPa

METAR: KP58 241851Z AUTO 17007KT 26/20 A2963 RMK AO1 SLP025 T02560200

Aika: 15:34 (19:34 UTC)


TAF: puuttuu

Säähavainnot ja -ennusteet yli 4000 lentoasemalta (METAR- ja TAF-raportit).

Käytössä olevat sääasemat on merkitty karttaan keltaisilla ja punaisilla pisteillä.

Aseta hiiri pisteen päälle nähdäksesi sääaseman nimen.

Klikkaa sitten nähdäksesi säähavainnot ja -ennusteet.

Kartan vaihtaminen: klikkaa mustalla rastilla varustettuja vihreitä pisteitä, niin voit zoomata sisään; viivalla varustettua vihreää pistettä, niin voit zoomata ulos tai vihreitä nuolia, niin pääset viereisille kartoille.


METAR-TAF: